createdAt,value
2023-02-18T00:01:43.724Z,98307.94
2023-02-18T00:04:12.144Z,98299.28
2023-02-18T00:06:40.655Z,98295.28
2023-02-18T00:09:11.341Z,98293.59
2023-02-18T00:11:40.285Z,98301.75
2023-02-18T00:14:13.529Z,98299.91
2023-02-18T00:16:42.814Z,98292.06
2023-02-18T00:19:15.450Z,98290.69
2023-02-18T00:21:43.858Z,98292.50
2023-02-18T00:24:16.521Z,98298.94
2023-02-18T00:26:45.549Z,98297.44
2023-02-18T00:29:14.050Z,98301.19
2023-02-18T00:31:42.553Z,98285.09
2023-02-18T00:34:12.790Z,98287.09
2023-02-18T00:36:41.733Z,98289.59
2023-02-18T00:39:13.214Z,98296.03
2023-02-18T00:41:42.191Z,98296.88
2023-02-18T00:44:10.739Z,98292.69
2023-02-18T00:46:39.321Z,98298.00
2023-02-18T00:49:08.295Z,98294.50
2023-02-18T00:51:37.399Z,98292.41
2023-02-18T00:54:05.751Z,98293.22
2023-02-18T00:56:35.560Z,98296.59
2023-02-18T00:59:04.260Z,98298.53
2023-02-18T01:01:32.654Z,98299.94
2023-02-18T01:04:01.010Z,98306.66
2023-02-18T01:06:29.316Z,98307.09
2023-02-18T01:08:57.771Z,98307.22
2023-02-18T01:11:26.252Z,98313.41
2023-02-18T01:13:55.853Z,98307.94
2023-02-18T01:16:24.755Z,98307.94
2023-02-18T01:18:53.107Z,98306.09
2023-02-18T01:21:21.350Z,98293.78
2023-02-18T01:23:49.815Z,98298.81
2023-02-18T01:26:18.098Z,98300.25
2023-02-18T01:28:46.476Z,98305.28
2023-02-18T01:31:17.029Z,98296.44
2023-02-18T01:33:45.449Z,98299.94
2023-02-18T01:36:14.478Z,98294.63
2023-02-18T01:38:42.819Z,98301.91
2023-02-18T01:41:11.864Z,98297.28
2023-02-18T01:43:40.588Z,98297.28
2023-02-18T01:46:18.371Z,98286.66
2023-02-18T01:48:52.990Z,98285.09
2023-02-18T01:51:25.375Z,98274.31
2023-02-18T01:53:58.454Z,98279.63
2023-02-18T01:56:31.361Z,98275.19
2023-02-18T01:59:03.546Z,98277.53
2023-02-18T02:01:34.460Z,98275.59
2023-02-18T02:04:03.477Z,98273.78
2023-02-18T02:06:32.557Z,98266.38
2023-02-18T02:09:04.949Z,98261.06
2023-02-18T02:12:20.864Z,98265.13
2023-02-18T02:15:16.947Z,98261.34
2023-02-18T02:17:58.975Z,98261.06
2023-02-18T02:21:18.722Z,98256.84
2023-02-18T02:24:54.117Z,98260.22
2023-02-18T02:27:27.636Z,98256.03
2023-02-18T02:30:43.622Z,98245.09
2023-02-18T02:33:53.770Z,98252.09
2023-02-18T02:36:26.624Z,98250.13
2023-02-18T02:39:03.325Z,98243.09
2023-02-18T02:41:48.441Z,98239.63
2023-02-18T02:44:22.954Z,98236.53
2023-02-18T02:46:56.110Z,98237.19
2023-02-18T02:49:35.369Z,98231.06
2023-02-18T02:52:13.452Z,98235.38
2023-02-18T02:54:42.046Z,98234.25
2023-02-18T02:57:54.953Z,98231.22
2023-02-18T03:00:34.021Z,98237.34
2023-02-18T03:03:39.113Z,98233.31
2023-02-18T03:06:38.822Z,98232.88
2023-02-18T03:09:15.309Z,98222.66
2023-02-18T03:11:56.006Z,98221.38
2023-02-18T03:14:31.686Z,98220.13
2023-02-18T03:17:04.823Z,98215.47
2023-02-18T03:19:37.949Z,98223.16
2023-02-18T03:22:12.840Z,98222.34
2023-02-18T03:24:44.868Z,98222.19
2023-02-18T03:27:21.265Z,98227.66
2023-02-18T03:29:56.789Z,98226.25
2023-02-18T03:32:26.835Z,98224.75
2023-02-18T03:35:00.472Z,98230.63
2023-02-18T03:37:29.144Z,98232.28
2023-02-18T03:40:02.630Z,98219.69
2023-02-18T03:42:31.243Z,98229.19
2023-02-18T03:44:59.953Z,98227.41
2023-02-18T03:47:28.415Z,98236.75
2023-02-18T03:49:56.684Z,98233.50
2023-02-18T03:52:25.005Z,98218.38
2023-02-18T03:54:53.307Z,98221.91
2023-02-18T03:57:22.962Z,98233.38
2023-02-18T03:59:51.246Z,98217.03
2023-02-18T04:02:19.517Z,98221.19
2023-02-18T04:04:47.806Z,98224.41
2023-02-18T04:07:16.145Z,98225.69
2023-02-18T04:09:44.430Z,98228.75
2023-02-18T04:12:12.772Z,98224.13
2023-02-18T04:14:42.353Z,98226.50
2023-02-18T04:17:10.882Z,98228.16
2023-02-18T04:19:39.143Z,98223.53
2023-02-18T04:22:07.412Z,98225.19
2023-02-18T04:24:35.667Z,98229.16
2023-02-18T04:27:03.894Z,98228.84
2023-02-18T04:29:32.387Z,98222.53
2023-02-18T04:32:02.180Z,98222.69
2023-02-18T04:34:30.435Z,98224.78
2023-02-18T04:36:58.689Z,98221.16
2023-02-18T04:39:27.145Z,98223.69
2023-02-18T04:41:55.426Z,98229.81
2023-02-18T04:44:23.681Z,98233.31
2023-02-18T04:46:51.914Z,98231.50
2023-02-18T04:49:21.505Z,98228.44
2023-02-18T04:51:49.722Z,98229.97
2023-02-18T04:54:17.977Z,98238.81
2023-02-18T04:56:46.229Z,98238.81
2023-02-18T04:59:14.526Z,98242.47
2023-02-18T05:01:42.851Z,98241.59
2023-02-18T05:04:11.171Z,98228.44
2023-02-18T05:06:43.096Z,98231.56
2023-02-18T05:09:11.528Z,98231.25
2023-02-18T05:11:39.845Z,98231.16
2023-02-18T05:14:08.125Z,98228.19
2023-02-18T05:16:36.576Z,98217.69
2023-02-18T05:19:04.880Z,98220.50
2023-02-18T05:21:33.368Z,98217.84
2023-02-18T05:24:02.950Z,98217.03
2023-02-18T05:26:31.198Z,98215.09
2023-02-18T05:28:59.500Z,98210.59
2023-02-18T05:31:27.937Z,98221.53
2023-02-18T05:33:56.236Z,98213.97
2023-02-18T05:36:24.819Z,98215.25
2023-02-18T05:38:53.263Z,98224.44
2023-02-18T05:41:23.245Z,98217.63
2023-02-18T05:44:08.829Z,98212.66
2023-02-18T05:46:37.184Z,98213.81
2023-02-18T05:49:05.587Z,98213.97
2023-02-18T05:51:33.809Z,98232.44
2023-02-18T05:54:02.135Z,98218.84
2023-02-18T05:56:31.817Z,98218.53
2023-02-18T05:59:00.106Z,98225.53
2023-02-18T06:01:28.366Z,98220.91
2023-02-18T06:03:56.707Z,98223.72
2023-02-18T06:06:25.184Z,98221.59
2023-02-18T06:08:53.487Z,98224.94
2023-02-18T06:11:21.744Z,98231.66
2023-02-18T06:13:51.393Z,98224.63
2023-02-18T06:16:19.761Z,98225.50
2023-02-18T06:18:48.070Z,98225.50
2023-02-18T06:21:16.407Z,98228.84
2023-02-18T06:23:44.736Z,98227.84
2023-02-18T06:26:13.328Z,98232.31
2023-02-18T06:28:41.586Z,98226.19
2023-02-18T06:31:11.301Z,98224.34
2023-02-18T06:33:39.573Z,98222.53
2023-02-18T06:36:11.856Z,98221.16
2023-02-18T06:38:41.496Z,98221.97
2023-02-18T06:41:10.133Z,98221.16
2023-02-18T06:43:38.921Z,98219.63
2023-02-18T06:46:08.207Z,98230.97
2023-02-18T06:48:38.963Z,98221.16
2023-02-18T06:51:07.536Z,98218.94
2023-02-18T06:53:36.196Z,98219.63
2023-02-18T06:56:04.591Z,98224.13
2023-02-18T06:58:32.852Z,98225.94
2023-02-18T07:01:01.375Z,98224.13
2023-02-18T07:03:29.746Z,98220.31
2023-02-18T07:05:59.922Z,98220.31
2023-02-18T07:08:28.299Z,98217.50
2023-02-18T07:10:56.590Z,98213.03
2023-02-18T07:13:24.867Z,98205.88
2023-02-18T07:15:53.112Z,98205.03
2023-02-18T07:18:21.340Z,98205.03
2023-02-18T07:20:49.570Z,98205.03
2023-02-18T07:23:19.171Z,98202.13
2023-02-18T07:25:47.411Z,98194.41
2023-02-18T07:28:15.663Z,98199.16
2023-02-18T07:30:43.882Z,98199.63
2023-02-18T07:33:14.124Z,98195.97
2023-02-18T07:35:42.342Z,98192.84
2023-02-18T07:38:10.645Z,98191.88
2023-02-18T07:40:40.579Z,98193.69
2023-02-18T07:43:08.848Z,98197.34
2023-02-18T07:45:39.256Z,98198.72
2023-02-18T07:48:07.690Z,98184.41
2023-02-18T07:50:37.158Z,98196.59
2023-02-18T07:53:06.313Z,98192.25
2023-02-18T07:55:48.610Z,98190.28
2023-02-18T07:58:19.539Z,98179.19
2023-02-18T08:00:49.488Z,98179.72
2023-02-18T08:03:19.096Z,98180.25
2023-02-18T08:05:48.966Z,98181.63
2023-02-18T08:08:20.515Z,98188.50
2023-02-18T08:10:49.583Z,98177.25
2023-02-18T08:13:19.254Z,98173.03
2023-02-18T08:15:48.224Z,98175.09
2023-02-18T08:18:20.414Z,98185.59
2023-02-18T08:20:49.758Z,98172.69
2023-02-18T08:23:20.334Z,98162.56
2023-02-18T08:25:50.248Z,98175.41
2023-02-18T08:28:20.779Z,98174.13
2023-02-18T08:30:50.695Z,98168.34
2023-02-18T08:33:20.635Z,98147.41
2023-02-18T08:35:50.773Z,98164.09
2023-02-18T08:38:19.222Z,98163.31
2023-02-18T08:40:47.933Z,98165.38
2023-02-18T08:43:19.339Z,98151.72
2023-02-18T08:45:47.610Z,98172.28
2023-02-18T08:48:20.570Z,98156.81
2023-02-18T08:50:49.520Z,98164.84
2023-02-18T08:53:18.697Z,98164.94
2023-02-18T08:55:47.101Z,98167.47
2023-02-18T08:58:15.389Z,98162.13
2023-02-18T09:00:46.387Z,98160.69
2023-02-18T09:03:16.200Z,98162.41
2023-02-18T09:05:44.519Z,98168.47
2023-02-18T09:08:12.746Z,98171.97
2023-02-18T09:10:40.960Z,98168.16
2023-02-18T09:13:09.181Z,98146.91
2023-02-18T09:15:37.512Z,98154.06
2023-02-18T09:18:07.290Z,98150.59
2023-02-18T09:20:35.563Z,98144.59
2023-02-18T09:23:04.204Z,98140.41
2023-02-18T09:25:32.399Z,98137.41
2023-02-18T09:28:00.717Z,98133.59
2023-02-18T09:30:29.053Z,98144.78
2023-02-18T09:32:57.334Z,98144.81
2023-02-18T09:35:26.957Z,98145.19
2023-02-18T09:37:55.152Z,98145.50
2023-02-18T09:40:27.701Z,98142.19
2023-02-18T09:42:58.131Z,98124.03
2023-02-18T09:45:27.373Z,98113.19
2023-02-18T09:47:56.326Z,98123.88
2023-02-18T09:50:30.036Z,98113.22
2023-02-18T09:53:00.930Z,98112.56
2023-02-18T09:55:32.932Z,98108.06
2023-02-18T09:58:04.787Z,98104.56
2023-02-18T10:00:39.225Z,98098.06
2023-02-18T10:03:14.685Z,98095.38
2023-02-18T10:05:57.787Z,98098.06
2023-02-18T10:08:29.801Z,98096.88
2023-02-18T10:10:58.123Z,98090.50
2023-02-18T10:13:30.444Z,98100.03
2023-02-18T10:15:58.868Z,98083.47
2023-02-18T10:21:10.943Z,98064.13
2023-02-18T10:23:43.434Z,98060.75
2023-02-18T10:26:16.680Z,98065.44
2023-02-18T10:28:45.976Z,98064.75
2023-02-18T10:31:21.715Z,98067.63
2023-02-18T10:33:59.035Z,98063.44
2023-02-18T10:36:35.535Z,98059.75
2023-02-18T10:39:37.867Z,98056.09
2023-02-18T10:42:25.325Z,98048.25
2023-02-18T10:45:08.003Z,98049.41
2023-02-18T10:47:49.258Z,98045.41
2023-02-18T10:50:30.198Z,98041.53
2023-02-18T10:53:09.351Z,98032.19
2023-02-18T10:55:40.712Z,98029.34
2023-02-18T10:58:28.589Z,98039.72
2023-02-18T11:00:57.160Z,98048.88
2023-02-18T11:03:27.376Z,98037.50
2023-02-18T11:05:57.817Z,98036.03
2023-02-18T11:08:41.108Z,98038.53
2023-02-18T11:11:16.232Z,98022.84
2023-02-18T11:13:44.846Z,98033.34
2023-02-18T11:16:15.825Z,98035.72
2023-02-18T11:18:46.549Z,98018.38
2023-02-18T11:21:30.422Z,98033.56
2023-02-18T11:24:10.150Z,98010.81
2023-02-18T11:26:41.077Z,98006.31
2023-02-18T11:29:17.142Z,97995.63
2023-02-18T11:31:48.544Z,97997.66
2023-02-18T11:34:20.523Z,97989.81
2023-02-18T11:36:49.893Z,97992.00
2023-02-18T11:39:24.695Z,97999.00
2023-02-18T11:41:58.604Z,97983.63
2023-02-18T11:44:31.324Z,97958.25
2023-02-18T11:47:03.592Z,97970.75
2023-02-18T11:49:35.055Z,97970.75
2023-02-18T11:52:18.587Z,97956.56
2023-02-18T11:55:02.884Z,97952.88
2023-02-18T11:57:31.892Z,97951.72
2023-02-18T12:00:01.559Z,97955.03
2023-02-18T12:02:35.926Z,97954.72
2023-02-18T12:05:11.290Z,97940.19
2023-02-18T12:07:45.748Z,97923.28
2023-02-18T12:10:22.889Z,97924.13
2023-02-18T12:13:00.272Z,97927.81
2023-02-18T12:15:42.537Z,97921.47
2023-02-18T12:18:25.739Z,97916.28
2023-02-18T12:21:12.795Z,97899.56
2023-02-18T12:23:53.059Z,97913.09
2023-02-18T12:26:30.291Z,97907.06
2023-02-18T12:29:23.890Z,97907.34
2023-02-18T12:32:06.741Z,97893.88
2023-02-18T12:34:51.309Z,97890.31
2023-02-18T12:38:06.218Z,97892.47
2023-02-18T12:40:53.227Z,97892.31
2023-02-18T12:43:35.120Z,97891.09
2023-02-18T12:46:46.980Z,97889.75
2023-02-18T12:49:52.383Z,97882.72
2023-02-18T12:52:37.143Z,97890.25
2023-02-18T12:55:38.170Z,97881.53
2023-02-18T12:58:20.681Z,97867.47
2023-02-18T13:01:10.291Z,97870.31
2023-02-18T13:04:18.012Z,97865.47
2023-02-18T13:07:33.694Z,97864.44
2023-02-18T13:10:24.553Z,97858.09
2023-02-18T13:13:00.106Z,97853.09
2023-02-18T13:15:38.831Z,97849.75
2023-02-18T13:18:14.774Z,97861.94
2023-02-18T13:20:46.815Z,97842.88
2023-02-18T13:23:21.357Z,97845.63
2023-02-18T13:25:58.957Z,97834.06
2023-02-18T13:28:33.983Z,97835.09
2023-02-18T13:31:17.384Z,97836.56
2023-02-18T13:33:55.380Z,97843.75
2023-02-18T13:36:41.653Z,97846.25
2023-02-18T13:39:19.306Z,97826.19
2023-02-18T13:41:49.777Z,97831.88
2023-02-18T13:45:07.478Z,97835.38
2023-02-18T13:47:42.049Z,97832.34
2023-02-18T13:50:41.814Z,97834.06
2023-02-18T13:53:32.553Z,97834.75
2023-02-18T13:56:05.980Z,97833.06
2023-02-18T13:58:42.090Z,97833.91
2023-02-18T14:01:22.520Z,97830.56
2023-02-18T14:04:02.433Z,97826.72
2023-02-18T14:06:35.266Z,97798.78
2023-02-18T14:09:42.074Z,97811.66
2023-02-18T14:12:40.654Z,97822.34
2023-02-18T14:15:55.319Z,97818.88
2023-02-18T14:18:39.170Z,97817.84
2023-02-18T14:21:38.002Z,97819.03
2023-02-18T14:24:14.404Z,97817.00
2023-02-18T14:26:47.391Z,97816.00
2023-02-18T14:29:28.373Z,97825.19
2023-02-18T14:32:04.215Z,97824.03
2023-02-18T14:35:05.586Z,97818.69
2023-02-18T14:37:59.571Z,97819.03
2023-02-18T14:40:53.931Z,97827.41
2023-02-18T14:43:49.060Z,97812.69
2023-02-18T14:46:33.366Z,97811.47
2023-02-18T14:49:25.628Z,97816.72
2023-02-18T14:51:55.679Z,97810.00
2023-02-18T14:54:28.737Z,97807.31
2023-02-18T14:57:01.069Z,97805.84
2023-02-18T14:59:35.431Z,97797.16
2023-02-18T15:02:03.682Z,97798.81
2023-02-18T15:04:32.038Z,97798.28
2023-02-18T15:07:02.394Z,97787.59
2023-02-18T15:09:32.404Z,97796.47
2023-02-18T15:12:04.600Z,97794.91
2023-02-18T15:14:37.409Z,97791.59
2023-02-18T15:17:07.899Z,97796.28
2023-02-18T15:19:43.185Z,97797.47
2023-02-18T15:22:19.456Z,97796.81
2023-02-18T15:24:50.682Z,97794.97
2023-02-18T15:27:23.251Z,97797.16
2023-02-18T15:29:53.403Z,97796.31
2023-02-18T15:32:23.844Z,97797.03
2023-02-18T15:34:54.102Z,97786.88
2023-02-18T15:37:22.409Z,97806.44
2023-02-18T15:39:52.492Z,97804.78
2023-02-18T15:42:27.980Z,97805.56
2023-02-18T15:44:59.914Z,97809.81
2023-02-18T15:47:28.221Z,97812.47
2023-02-18T15:50:00.107Z,97804.34
2023-02-18T15:52:31.070Z,97815.84
2023-02-18T15:55:06.374Z,97805.16
2023-02-18T15:57:37.372Z,97803.16
2023-02-18T16:00:15.016Z,97806.84
2023-02-18T16:02:55.096Z,97815.56
2023-02-18T16:05:28.240Z,97811.22
2023-02-18T16:08:02.676Z,97797.22
2023-02-18T16:10:50.005Z,97807.22
2023-02-18T16:13:19.848Z,97816.91
2023-02-18T16:15:51.210Z,97816.13
2023-02-18T16:18:27.463Z,97817.94
2023-02-18T16:21:02.002Z,97828.97
2023-02-18T16:23:38.491Z,97818.13
2023-02-18T16:26:33.662Z,97829.00
2023-02-18T16:29:14.294Z,97822.34
2023-02-18T16:31:43.127Z,97827.50
2023-02-18T16:34:11.376Z,97821.19
2023-02-18T16:37:00.286Z,97823.19
2023-02-18T16:39:29.719Z,97832.38
2023-02-18T16:41:59.285Z,97837.72
2023-02-18T16:44:27.539Z,97835.03
2023-02-18T16:46:55.876Z,97834.88
2023-02-18T16:49:24.161Z,97835.22
2023-02-18T16:51:52.476Z,97838.94
2023-02-18T16:54:20.703Z,97852.28
2023-02-18T16:56:49.635Z,97857.44
2023-02-18T16:59:19.269Z,97856.47
2023-02-18T17:01:47.653Z,97864.16
2023-02-18T17:04:18.663Z,97864.31
2023-02-18T17:06:48.496Z,97885.19
2023-02-18T17:09:20.504Z,97872.84
2023-02-18T17:11:51.372Z,97873.53
2023-02-18T17:14:23.822Z,97884.34
2023-02-18T17:16:54.555Z,97879.84
2023-02-18T17:19:23.124Z,97887.19
2023-02-18T17:21:51.449Z,97896.72
2023-02-18T17:24:20.456Z,97898.53
2023-02-18T17:26:48.810Z,97905.53
2023-02-18T17:29:17.237Z,97914.56
2023-02-18T17:31:48.185Z,97915.75
2023-02-18T17:34:26.628Z,97915.06
2023-02-18T17:36:55.420Z,97921.25
2023-02-18T17:39:24.468Z,97921.44
2023-02-18T17:41:53.264Z,97923.44
2023-02-18T17:44:24.095Z,97925.25
2023-02-18T17:46:54.863Z,97939.63
2023-02-18T17:49:23.435Z,97932.63
2023-02-18T17:51:52.607Z,97931.78
2023-02-18T17:54:22.768Z,97937.97
2023-02-18T17:56:51.095Z,97938.13
2023-02-18T17:59:19.346Z,97944.28
2023-02-18T18:01:47.602Z,97944.63
2023-02-18T18:04:19.500Z,97939.44
2023-02-18T18:06:49.750Z,97940.47
2023-02-18T18:09:18.015Z,97942.28
2023-02-18T18:11:46.271Z,97947.63
2023-02-18T18:14:15.466Z,97944.31
2023-02-18T18:16:43.757Z,97944.31
2023-02-18T18:19:12.012Z,97943.78
2023-02-18T18:21:41.949Z,97943.78
2023-02-18T18:24:13.618Z,97945.31
2023-02-18T18:26:41.841Z,97953.31
2023-02-18T18:29:10.082Z,97948.97
2023-02-18T18:31:38.478Z,97959.00
2023-02-18T18:34:06.806Z,97952.13
2023-02-18T18:36:35.096Z,97956.66
2023-02-18T18:39:04.862Z,97953.47
2023-02-18T18:41:33.069Z,97960.47
2023-02-18T18:44:02.179Z,97955.13
2023-02-18T18:46:30.480Z,97953.00
2023-02-18T18:48:58.768Z,97957.66
2023-02-18T18:51:31.376Z,97960.31
2023-02-18T18:53:59.862Z,97968.16
2023-02-18T18:56:29.613Z,97968.66
2023-02-18T18:58:58.096Z,97963.31
2023-02-18T19:01:27.581Z,97967.16
2023-02-18T19:03:56.098Z,97970.16
2023-02-18T19:06:24.378Z,97978.34
2023-02-18T19:08:52.705Z,97970.16
2023-02-18T19:11:20.956Z,97974.31
2023-02-18T19:13:50.643Z,97979.97
2023-02-18T19:16:22.331Z,97978.59
2023-02-18T19:18:50.833Z,97980.13
2023-02-18T19:21:19.077Z,97976.41
2023-02-18T19:23:47.380Z,97989.25
2023-02-18T19:26:17.100Z,97972.75
2023-02-18T19:28:45.462Z,97987.44
2023-02-18T19:31:15.611Z,97989.59
2023-02-18T19:33:46.888Z,97988.25
2023-02-18T19:36:16.694Z,97992.06
2023-02-18T19:38:45.533Z,97985.41
2023-02-18T19:41:16.928Z,97995.56
2023-02-18T19:43:46.626Z,97995.41
2023-02-18T19:46:18.681Z,97989.22
2023-02-18T19:48:50.671Z,97993.59
2023-02-18T19:51:19.459Z,97996.25
2023-02-18T19:53:47.721Z,98003.72
2023-02-18T19:56:16.030Z,97999.56
2023-02-18T19:58:44.362Z,97999.03
2023-02-18T20:01:15.641Z,98002.56
2023-02-18T20:03:44.612Z,97995.84
2023-02-18T20:06:17.112Z,97999.72
2023-02-18T20:08:45.565Z,98009.56
2023-02-18T20:11:14.220Z,98007.91
2023-02-18T20:13:42.704Z,98006.03
2023-02-18T20:16:12.022Z,98007.91
2023-02-18T20:18:41.785Z,98004.38
2023-02-18T20:21:12.596Z,98003.91
2023-02-18T20:23:41.012Z,98007.56
2023-02-18T20:26:10.156Z,98004.22
2023-02-18T20:28:38.704Z,98008.72
2023-02-18T20:31:08.707Z,97998.19
2023-02-18T20:33:37.353Z,98010.56
2023-02-18T20:36:08.676Z,98012.38
2023-02-18T20:38:37.785Z,98017.03
2023-02-18T20:41:07.362Z,98019.03
2023-02-18T20:43:36.053Z,98015.53
2023-02-18T20:46:05.486Z,98011.19
2023-02-18T20:48:34.376Z,98005.03
2023-02-18T20:51:07.963Z,98010.53
2023-02-18T20:53:38.033Z,98015.84
2023-02-18T20:56:08.118Z,98008.84
2023-02-18T20:58:37.258Z,98013.81
2023-02-18T21:01:07.937Z,98012.81
2023-02-18T21:03:37.786Z,98006.16
2023-02-18T21:06:10.705Z,98009.81
2023-02-18T21:08:40.748Z,98008.13
2023-02-18T21:11:11.779Z,98011.13
2023-02-18T21:13:40.638Z,98010.47
2023-02-18T21:16:10.523Z,98013.44
2023-02-18T21:18:38.998Z,98022.41
2023-02-18T21:21:11.336Z,98026.25
2023-02-18T21:23:40.926Z,98026.56
2023-02-18T21:26:12.353Z,98025.06
2023-02-18T21:28:41.462Z,98028.56
2023-02-18T21:31:19.251Z,98033.38
2023-02-18T21:33:47.717Z,98029.06
2023-02-18T21:36:18.192Z,98030.19
2023-02-18T21:38:46.926Z,98035.16
2023-02-18T21:41:15.254Z,98043.94
2023-02-18T21:43:46.350Z,98039.09
2023-02-18T21:46:18.686Z,98030.56
2023-02-18T21:49:06.789Z,98031.88
2023-02-18T21:52:00.366Z,98040.19
2023-02-18T21:54:30.741Z,98035.81
2023-02-18T21:57:00.991Z,98029.13
2023-02-18T21:59:30.942Z,98031.78
2023-02-18T22:02:00.888Z,98025.78
2023-02-18T22:04:30.782Z,98030.28
2023-02-18T22:07:01.272Z,98029.44
2023-02-18T22:09:29.683Z,98031.41
2023-02-18T22:11:58.002Z,98035.78
2023-02-18T22:14:26.417Z,98024.41
2023-02-18T22:16:54.728Z,98026.09
2023-02-18T22:19:22.984Z,98024.41
2023-02-18T22:21:51.410Z,98021.75
2023-02-18T22:24:21.273Z,98025.75
2023-02-18T22:26:50.482Z,98014.56
2023-02-18T22:29:20.482Z,98022.53
2023-02-18T22:31:49.564Z,98018.06
2023-02-18T22:34:18.604Z,98012.03
2023-02-18T22:36:47.136Z,98014.84
2023-02-18T22:39:16.792Z,98016.88
2023-02-18T22:41:46.483Z,98010.00
2023-02-18T22:44:17.536Z,98010.16
2023-02-18T22:46:46.294Z,98011.16
2023-02-18T22:49:14.738Z,98010.16
2023-02-18T22:51:45.161Z,98009.66
2023-02-18T22:54:16.244Z,98008.13
2023-02-18T22:56:47.199Z,98001.44
2023-02-18T22:59:19.307Z,98003.41
2023-02-18T23:01:50.549Z,98005.91
2023-02-18T23:04:21.306Z,98001.75
2023-02-18T23:06:50.347Z,98006.91
2023-02-18T23:09:21.749Z,98007.22
2023-02-18T23:11:58.050Z,98012.00
2023-02-18T23:14:28.402Z,98009.66
2023-02-18T23:17:14.362Z,98005.88
2023-02-18T23:19:45.391Z,98007.00
2023-02-18T23:22:16.183Z,98011.66
2023-02-18T23:24:46.632Z,98007.31
2023-02-18T23:27:17.595Z,98012.78
2023-02-18T23:29:46.103Z,98008.16
2023-02-18T23:32:14.873Z,97999.47
2023-02-18T23:34:44.177Z,98002.97
2023-02-18T23:37:12.896Z,97999.63
2023-02-18T23:39:41.473Z,98010.13
2023-02-18T23:42:10.038Z,98004.13
2023-02-18T23:44:39.738Z,98003.44
2023-02-18T23:47:08.493Z,98002.78
2023-02-18T23:49:36.830Z,98001.41
2023-02-18T23:52:05.280Z,98012.03
2023-02-18T23:54:33.696Z,98005.34
2023-02-18T23:57:02.035Z,97985.88
2023-02-18T23:59:30.343Z,97989.41
